| time (UTC) | temp F | wind direction | speed MPH | gust MPH | rain 1hr in | rain 24hr in | rain mn in | humidity % | barometer mb |
| 20260906220034 | 68 | 345 | 8.0 | 13.0 | 0.00 | 0.00 | 0.00 | 60 | 1018.3 |
| 20260906214534 | 68 | 330 | 4.0 | 11.0 | 0.00 | 0.00 | 0.00 | 61 | 1018.3 |
| 20260906213032 | 68 | 299 | 8.0 | 14.0 | 0.00 | 0.00 | 0.00 | 62 | 1018.4 |
| 20260906211532 | 69 | 29 | 8.0 | 15.0 | 0.00 | 0.00 | 0.00 | 60 | 1018.4 |
| 20260906210031 | 69 | 327 | 9.0 | 13.0 | 0.00 | 0.00 | 0.00 | 60 | 1018.2 |
| 20260906204532 | 69 | 348 | 10.0 | 15.0 | 0.00 | 0.00 | 0.00 | 60 | 1018.1 |
| 20260906203029 | 69 | 39 | 6.0 | 15.0 | 0.00 | 0.00 | 0.00 | 56 | 1018.1 |
| 20260906201527 | 69 | 343 | 9.0 | 14.0 | 0.00 | 0.00 | 0.00 | 56 | 1018.0 |
| 20260906200026 | 70 | 343 | 9.0 | 15.0 | 0.00 | 0.00 | 0.00 | 55 | 1017.8 |
| 20260906194524 | 70 | 314 | 10.0 | 15.0 | 0.00 | 0.00 | 0.00 | 59 | 1017.9 |
| 20260906193022 | 70 | 360 | 9.0 | 14.0 | 0.00 | 0.00 | 0.00 | 60 | 1017.9 |
| 20260906191520 | 72 | 304 | 6.0 | 14.0 | 0.00 | 0.00 | 0.00 | 60 | 1017.7 |
| 20260906190118 | 71 | 328 | 10.0 | 19.0 | 0.00 | 0.00 | 0.00 | 58 | 1017.6 |
| 20260906184516 | 71 | 337 | 9.0 | 19.0 | 0.00 | 0.00 | 0.00 | 58 | 1017.8 |
| 20260906183016 | 70 | 307 | 11.0 | 16.0 | 0.00 | 0.00 | 0.00 | 57 | 1017.7 |
| 20260906181510 | 71 | 40 | 8.0 | 16.0 | 0.00 | 0.00 | 0.00 | 60 | 1017.6 |
| 20260906180008 | 70 | 44 | 7.0 | 12.0 | 0.00 | 0.00 | 0.00 | 63 | 1017.8 |
| 20260906174507 | 69 | 331 | 8.0 | 12.0 | 0.00 | 0.00 | 0.00 | 67 | 1017.9 |
| 20260906173003 | 69 | 339 | 7.0 | 13.0 | 0.00 | 0.00 | 0.00 | 67 | 1017.6 |
| 20260906171502 | 69 | 36 | 7.0 | 11.0 | 0.00 | 0.00 | 0.00 | 67 | 1017.9 |
| 20260906170110 | 69 | 68 | 4.0 | 11.0 | 0.00 | 0.00 | 0.00 | 65 | 1017.8 |
| 20260906164558 | 68 | 65 | 4.0 | 10.0 | 0.00 | 0.00 | 0.00 | 68 | 1017.7 |
| 20260906163057 | 69 | 34 | 9.0 | 14.0 | 0.00 | 0.00 | 0.00 | 66 | 1017.7 |
| 20260906161554 | 68 | 61 | 3.0 | 11.0 | 0.00 | 0.00 | 0.00 | 68 | 1017.7 |
| 20260906160052 | 68 | 49 | 5.0 | 10.0 | 0.00 | 0.00 | 0.00 | 69 | 1017.7 |
| 20260906154550 | 67 | 59 | 6.0 | 15.0 | 0.00 | 0.00 | 0.00 | 69 | 1017.8 |
| 20260906153048 | 67 | 45 | 8.0 | 12.0 | 0.00 | 0.00 | 0.00 | 69 | 1017.9 |
| 20260906151552 | 67 | 67 | 9.0 | 14.0 | 0.00 | 0.00 | 0.00 | 70 | 1017.9 |
| 20260906150045 | 67 | 37 | 6.0 | 14.0 | 0.00 | 0.00 | 0.00 | 73 | 1018.0 |
| 20260906144544 | 67 | 63 | 9.0 | 16.0 | 0.00 | 0.00 | 0.00 | 72 | 1017.9 |
| 20260906143036 | 66 | 51 | 8.0 | 15.0 | 0.00 | 0.00 | 0.00 | 77 | 1017.7 |
| 20260906141532 | 65 | 65 | 10.0 | 15.0 | 0.00 | 0.00 | 0.00 | 81 | 1017.7 |
| 20260906140030 | 64 | 51 | 7.0 | 13.0 | 0.00 | 0.00 | 0.00 | 84 | 1017.7 |
| 20260906134527 | 64 | 69 | 9.0 | 15.0 | 0.00 | 0.00 | 0.00 | 86 | 1017.3 |
| 20260906133025 | 63 | 24 | 10.0 | 14.0 | 0.00 | 0.00 | 0.00 | 87 | 1017.3 |
| 20260906131528 | 64 | 56 | 6.0 | 15.0 | 0.00 | 0.00 | 0.00 | 89 | 1017.3 |
| 20260906130021 | 63 | 38 | 9.0 | 16.0 | 0.00 | 0.00 | 0.00 | 89 | 1017.4 |
| 20260906124518 | 63 | 49 | 7.0 | 12.0 | 0.00 | 0.01 | 0.00 | 90 | 1017.1 |
| 20260906123021 | 63 | 33 | 8.0 | 14.0 | 0.00 | 0.01 | 0.00 | 92 | 1017.0 |
| 20260906121513 | 63 | 40 | 3.0 | 7.0 | 0.00 | 0.01 | 0.00 | 93 | 1016.9 |
| 20260906120011 | 63 | 348 | 4.0 | 9.0 | 0.00 | 0.01 | 0.00 | 94 | 1016.6 |
| 20260906114508 | 62 | 355 | 4.0 | 10.0 | 0.00 | 0.01 | 0.00 | 94 | 1016.5 |
| 20260906113004 | 62 | 13 | 2.0 | 8.0 | 0.00 | 0.01 | 0.00 | 95 | 1016.3 |
| 20260906111501 | 61 | 334 | 6.0 | 10.0 | 0.00 | 0.01 | 0.00 | 95 | 1016.1 |
| 20260906110059 | 61 | 320 | 4.0 | 8.0 | 0.00 | 0.01 | 0.00 | 95 | 1016.1 |
| 20260906104556 | 60 | 311 | 3.0 | 6.0 | 0.00 | 0.01 | 0.00 | 95 | 1016.0 |
| 20260906103058 | 60 | 302 | 3.0 | 6.0 | 0.00 | 0.01 | 0.00 | 95 | 1016.1 |
| 20260906101552 | 59 | 240 | 0.0 | 3.0 | 0.00 | 0.01 | 0.00 | 95 | 1015.8 |
| 20260906100049 | 58 | 186 | 0.0 | 0.0 | 0.00 | 0.01 | 0.00 | 94 | 1015.5 |
| 20260906094548 | 58 | 198 | 0.0 | 0.0 | 0.00 | 0.01 | 0.00 | 94 | 1015.3 |
| 20260906093053 | 58 | 198 | 0.0 | 0.0 | 0.00 | 0.01 | 0.00 | 93 | 1015.4 |
| 20260906091545 | 58 | 198 | 0.0 | 0.0 | 0.00 | 0.01 | 0.00 | 93 | 1015.4 |
| 20260906090042 | 58 | 198 | 1.0 | 4.0 | 0.00 | 0.01 | 0.00 | 93 | 1015.0 |
| 20260906084541 | 58 | 188 | 0.0 | 2.0 | 0.00 | 0.01 | 0.00 | 93 | 1014.9 |
| 20260906083040 | 58 | 188 | 0.0 | 0.0 | 0.00 | 0.01 | 0.00 | 93 | 1014.6 |
| 20260906081540 | 58 | 188 | 0.0 | 0.0 | 0.00 | 0.01 | 0.00 | 93 | 1014.6 |
| 20260906080037 | 59 | 188 | 0.0 | 2.0 | 0.00 | 0.01 | 0.00 | 93 | 1014.6 |
| 20260906074537 | 59 | 197 | 2.0 | 4.0 | 0.00 | 0.01 | 0.00 | 92 | 1014.5 |
| 20260906073036 | 59 | 200 | 0.0 | 3.0 | 0.00 | 0.01 | 0.00 | 91 | 1014.5 |
| 20260906071534 | 59 | 199 | 0.0 | 0.0 | 0.00 | 0.01 | 0.00 | 91 | 1014.5 |
| 20260906070032 | 59 | 199 | 0.0 | 0.0 | 0.00 | 0.01 | 0.00 | 91 | 1014.5 |
| 20260906064536 | 59 | 199 | 0.0 | 3.0 | 0.00 | 0.01 | 0.00 | 91 | 1014.6 |
| 20260906063029 | 59 | 196 | 3.0 | 4.0 | 0.00 | 0.01 | 0.00 | 91 | 1014.8 |
| 20260906061528 | 59 | 183 | 2.0 | 4.0 | 0.00 | 0.01 | 0.00 | 91 | 1014.8 |
| 20260906060024 | 59 | 183 | 1.0 | 5.0 | 0.00 | 0.01 | 0.00 | 90 | 1014.7 |
| 20260906054533 | 59 | 279 | 0.0 | 0.0 | 0.00 | 0.02 | 0.00 | 90 | 1014.9 |
| 20260906053021 | 59 | 32 | 0.0 | 0.0 | 0.00 | 0.02 | 0.00 | 89 | 1014.8 |
| 20260906051520 | 59 | 37 | 0.0 | 0.0 | 0.00 | 0.02 | 0.00 | 89 | 1014.8 |
| 20260906050017 | 59 | 37 | 0.0 | 0.0 | 0.00 | 0.02 | 0.00 | 88 | 1014.7 |
| 20260906044516 | 59 | 37 | 0.0 | 0.0 | 0.00 | 0.02 | 0.00 | 88 | 1014.7 |
| 20260906043022 | 59 | 37 | 0.0 | 0.0 | 0.00 | 0.02 | 0.00 | 88 | 1014.7 |
| 20260906041514 | 59 | 37 | 0.0 | 0.0 | 0.00 | 0.02 | 0.00 | 87 | 1014.6 |
| 20260906040013 | 59 | 37 | 0.0 | 0.0 | 0.00 | 0.02 | 0.00 | 87 | 1014.6 |
| 20260906034511 | 59 | 37 | 0.0 | 0.0 | 0.00 | 0.02 | 0.02 | 87 | 1014.6 |
| 20260906033010 | 59 | 37 | 0.0 | 0.0 | 0.00 | 0.02 | 0.02 | 86 | 1014.5 |
| 20260906031510 | 60 | 37 | 0.0 | 0.0 | 0.00 | 0.02 | 0.02 | 85 | 1014.5 |
| 20260906030006 | 60 | 37 | 0.0 | 0.0 | 0.00 | 0.02 | 0.02 | 85 | 1014.5 |
| 20260906024507 | 61 | 37 | 0.0 | 0.0 | 0.00 | 0.02 | 0.02 | 84 | 1014.4 |
| 20260906023004 | 62 | 37 | 0.0 | 0.0 | 0.00 | 0.02 | 0.02 | 82 | 1014.3 |
| 20260906021505 | 62 | 37 | 0.0 | 0.0 | 0.00 | 0.02 | 0.02 | 82 | 1014.3 |
| 20260906020003 | 63 | 37 | 0.0 | 2.0 | 0.00 | 0.03 | 0.02 | 83 | 1014.4 |
| 20260906014505 | 63 | 37 | 1.0 | 3.0 | 0.00 | 0.03 | 0.02 | 82 | 1014.2 |
| 20260906013000 | 63 | 35 | 0.0 | 1.0 | 0.00 | 0.03 | 0.02 | 80 | 1014.1 |
| 20260906011606 | 63 | 35 | 0.0 | 4.0 | 0.00 | 0.03 | 0.02 | 81 | 1014.1 |
| 20260906010059 | 64 | 46 | 2.0 | 5.0 | 0.00 | 0.03 | 0.02 | 80 | 1014.0 |
| 20260906004558 | 64 | 41 | 2.0 | 5.0 | 0.00 | 0.03 | 0.02 | 80 | 1013.9 |
| 20260906003058 | 64 | 36 | 0.0 | 3.0 | 0.00 | 0.03 | 0.02 | 80 | 1014.0 |
| 20260906001557 | 64 | 339 | 0.0 | 0.0 | 0.00 | 0.03 | 0.02 | 79 | 1013.8 |
| 20260906000056 | 66 | 336 | 0.0 | 0.0 | 0.00 | 0.03 | 0.02 | 76 | 1013.6 |
| 20260905234556 | 67 | 336 | 0.0 | 4.0 | 0.00 | 0.04 | 0.02 | 75 | 1013.7 |
| 20260905233102 | 68 | 328 | 1.0 | 5.0 | 0.00 | 0.04 | 0.02 | 73 | 1013.7 |
| 20260905231555 | 69 | 338 | 2.0 | 8.0 | 0.00 | 0.04 | 0.02 | 71 | 1013.8 |
| 20260905230053 | 70 | 347 | 4.0 | 8.0 | 0.00 | 0.04 | 0.02 | 69 | 1013.5 |
| 20260905224554 | 70 | 10 | 4.0 | 12.0 | 0.00 | 0.04 | 0.02 | 68 | 1013.7 |
| 20260905223054 | 71 | 360 | 5.0 | 11.0 | 0.00 | 0.04 | 0.02 | 67 | 1013.4 |
| 20260905221552 | 72 | 19 | 4.0 | 10.0 | 0.00 | 0.04 | 0.02 | 65 | 1013.5 |